Hellas Glory — 9HWN9 — position and weather

sailwx.info

Track history (hours):
 
Tides and Currents Weather Stations Pressure Air Temp Water Temp Dewpoint Dewpoint Depression Visibility Wind Speed Wind Dir Waves Ship Positions

Hellas Glory

Last reported at 2014-Dec-22 06:33 UTC. Time now 2014-Dec-22 19:52 UTC.
Position N 29°40' E 122°26'.

Length 225 m; draft 7.7 m.

Type: Tanker. MMSI: 249636000.

Date/timePositionNaut miles runAvg speedWind from/ knotsBaromVisibWave heightAir tempDewpointWater temp
2014-Dec-22 06:33N 29°40' E 122°26'1414.1
2014-Dec-22 05:33N 29°49' E 122°14'1312.8
2014-Dec-22 04:33N 29°56' E 122°01'1111.0
2014-Dec-22 03:33N 29°59' E 121°49'2 0.0
2014-Dec-20 03:24N 29°58' E 121°47'4 4.7
2014-Dec-20 02:33N 29°58' E 121°52'1010.4
2014-Dec-20 01:34N 29°55' E 122°03'1312.6
2014-Dec-20 00:33N 29°48' E 122°15'7 7.2
2014-Dec-19 23:33N 29°43' E 122°21'8 7.8
2014-Dec-19 22:33N 29°37' E 122°27'0 0.0
2014-Dec-19 16:30N 29°37' E 122°27'0 0.0
2014-Dec-19 14:12N 29°37' E 122°27'0 0.0
2014-Dec-19 04:30N 29°37' E 122°27'0 0.0
2014-Dec-18 20:30N 29°37' E 122°27'0 0.0
2014-Dec-17 10:18N 29°37' E 122°27'0 0.0
2014-Dec-16 23:12N 29°37' E 122°27'0 0.0
2014-Dec-16 22:30N 29°37' E 122°27'0 0.0
2014-Dec-16 21:24N 29°37' E 122°27'0 0.0
2014-Dec-16 20:12N 29°37' E 122°27'0 0.0
2014-Dec-16 17:30N 29°37' E 122°27'0 0.0
2014-Dec-16 13:24N 29°37' E 122°27'0 0.1
2014-Dec-16 12:30N 29°37' E 122°27'0 0.0
2014-Dec-16 10:18N 29°37' E 122°27'0 0.0
2014-Dec-15 14:30N 29°37' E 122°27'0 0.0
2014-Dec-15 09:24N 29°37' E 122°27'0 0.0
2014-Dec-15 02:30N 29°37' E 122°27'0 0.0
2014-Dec-15 00:12N 29°37' E 122°27'0 0.1
2014-Dec-14 22:12N 29°37' E 122°27'0 0.1
2014-Dec-14 21:30N 29°37' E 122°27'0 0.1
2014-Dec-14 20:24N 29°37' E 122°27'0 0.1
2014-Dec-14 15:18N 29°37' E 122°27'0 0.1
2014-Dec-14 14:15N 29°37' E 122°27'4 5.3
2014-Dec-14 13:32N 29°34' E 122°29'  
Track history (hours):
 
Tides and Currents Weather Stations Pressure Air Temp Water Temp Dewpoint Dewpoint Depression Visibility Wind Speed Wind Dir Waves Ship Positions

Hellas Glory

Last reported at 2014-Dec-22 06:33 UTC. Time now 2014-Dec-22 19:52 UTC.
Position N 29°40' E 122°26'.

Length 225 m; draft 7.7 m.

Type: Tanker. MMSI: 249636000.

Date/timePositionNaut miles runAvg speedWind from/ knotsBaromVisibWave heightAir tempDewpointWater temp
2014-Dec-22 06:33N 29°40' E 122°26'1414.1
2014-Dec-22 05:33N 29°49' E 122°14'1312.8
2014-Dec-22 04:33N 29°56' E 122°01'1111.0
2014-Dec-22 03:33N 29°59' E 121°49'2 0.0
2014-Dec-20 03:24N 29°58' E 121°47'4 4.7
2014-Dec-20 02:33N 29°58' E 121°52'1010.4
2014-Dec-20 01:34N 29°55' E 122°03'1312.6
2014-Dec-20 00:33N 29°48' E 122°15'7 7.2
2014-Dec-19 23:33N 29°43' E 122°21'8 7.8
2014-Dec-19 22:33N 29°37' E 122°27'0 0.0
2014-Dec-19 16:30N 29°37' E 122°27'0 0.0
2014-Dec-19 14:12N 29°37' E 122°27'0 0.0
2014-Dec-19 04:30N 29°37' E 122°27'0 0.0
2014-Dec-18 20:30N 29°37' E 122°27'0 0.0
2014-Dec-17 10:18N 29°37' E 122°27'0 0.0
2014-Dec-16 23:12N 29°37' E 122°27'0 0.0
2014-Dec-16 22:30N 29°37' E 122°27'0 0.0
2014-Dec-16 21:24N 29°37' E 122°27'0 0.0
2014-Dec-16 20:12N 29°37' E 122°27'0 0.0
2014-Dec-16 17:30N 29°37' E 122°27'0 0.0
2014-Dec-16 13:24N 29°37' E 122°27'0 0.1
2014-Dec-16 12:30N 29°37' E 122°27'0 0.0
2014-Dec-16 10:18N 29°37' E 122°27'0 0.0
2014-Dec-15 14:30N 29°37' E 122°27'0 0.0
2014-Dec-15 09:24N 29°37' E 122°27'0 0.0
2014-Dec-15 02:30N 29°37' E 122°27'0 0.0
2014-Dec-15 00:12N 29°37' E 122°27'0 0.1
2014-Dec-14 22:12N 29°37' E 122°27'0 0.1
2014-Dec-14 21:30N 29°37' E 122°27'0 0.1
2014-Dec-14 20:24N 29°37' E 122°27'0 0.1
2014-Dec-14 15:18N 29°37' E 122°27'0 0.1
2014-Dec-14 14:15N 29°37' E 122°27'4 5.3
2014-Dec-14 13:32N 29°34' E 122°29'  

Dump ship's entire track history